createdAt,value
2022-10-29T00:01:52.835Z,6.30
2022-10-29T00:19:27.365Z,7.13
2022-10-29T00:21:54.239Z,7.82
2022-10-29T00:26:59.553Z,5.50
2022-10-29T00:45:36.259Z,15.27
2022-10-29T00:48:16.513Z,8.85
2022-10-29T00:50:48.024Z,9.05
2022-10-29T00:53:42.900Z,12.00
2022-10-29T00:56:38.799Z,8.82
2022-10-29T01:16:14.904Z,13.68
2022-10-29T01:18:58.806Z,8.45
2022-10-29T01:21:25.590Z,13.03
2022-10-29T01:31:54.345Z,18.35
2022-10-29T01:34:42.736Z,14.37
2022-10-29T01:37:38.324Z,12.48
2022-10-29T01:43:54.497Z,13.82
2022-10-29T01:55:33.046Z,16.85
2022-10-29T02:12:26.667Z,19.15
2022-10-29T02:15:20.829Z,13.05
2022-10-29T02:31:16.126Z,11.80
2022-10-29T02:33:42.891Z,10.23
2022-10-29T02:36:20.944Z,11.95
2022-10-29T02:38:47.587Z,14.70
2022-10-29T02:41:14.637Z,13.02
2022-10-29T02:43:56.925Z,12.90
2022-10-29T02:46:24.604Z,10.73
2022-10-29T02:48:51.510Z,13.77
2022-10-29T03:11:43.288Z,21.83
2022-10-29T05:32:28.970Z,10.33
2022-10-29T05:40:13.263Z,12.80
2022-10-29T05:53:32.700Z,9.50
2022-10-29T05:55:59.705Z,14.35
2022-10-29T06:09:08.048Z,10.15
2022-10-29T06:11:34.813Z,13.00
2022-10-29T06:14:01.477Z,14.07
2022-10-29T06:16:53.385Z,11.63
2022-10-29T06:22:06.848Z,12.32
2022-10-29T06:24:49.170Z,15.20
2022-10-29T06:27:15.795Z,14.70
2022-10-29T06:32:32.762Z,12.63
2022-10-29T06:35:14.841Z,13.90
2022-10-29T06:37:41.435Z,12.77
2022-10-29T06:40:08.714Z,13.32
2022-10-29T06:45:16.242Z,18.77
2022-10-29T06:47:44.336Z,18.73
2022-10-29T06:53:05.889Z,11.60
2022-10-29T06:55:47.555Z,15.02
2022-10-29T06:58:16.215Z,17.63
2022-10-29T07:00:55.431Z,15.85
2022-10-29T07:03:22.090Z,11.60
2022-10-29T07:05:56.240Z,13.68
2022-10-29T07:08:23.339Z,19.30
2022-10-29T07:10:58.547Z,14.75
2022-10-29T07:13:25.264Z,11.32
2022-10-29T07:15:51.874Z,15.57
2022-10-29T07:18:18.515Z,15.95
2022-10-29T07:21:05.728Z,11.57
2022-10-29T07:23:32.363Z,11.40
2022-10-29T07:26:13.178Z,16.50
2022-10-29T07:28:39.808Z,11.37
2022-10-29T07:31:06.489Z,10.90
2022-10-29T07:33:47.461Z,9.85
2022-10-29T07:36:14.468Z,11.25
2022-10-29T07:38:41.051Z,11.93
2022-10-29T07:41:07.687Z,12.07
2022-10-29T07:43:47.578Z,16.70
2022-10-29T07:46:14.227Z,14.65
2022-10-29T07:48:40.819Z,13.55
2022-10-29T07:51:30.451Z,13.25
2022-10-29T07:53:57.289Z,14.90
2022-10-29T07:56:34.947Z,13.43
2022-10-29T07:59:04.736Z,17.45
2022-10-29T08:01:40.789Z,15.25
2022-10-29T08:07:07.875Z,17.07
2022-10-29T08:12:15.171Z,16.40
2022-10-29T08:14:41.911Z,12.68
2022-10-29T08:17:29.279Z,15.90
2022-10-29T08:19:55.872Z,16.80
2022-10-29T08:22:22.509Z,16.30
2022-10-29T08:25:09.147Z,12.00
2022-10-29T08:27:35.855Z,20.58
2022-10-29T08:30:22.892Z,17.50
2022-10-29T08:32:49.615Z,12.60
2022-10-29T08:35:26.581Z,11.93
2022-10-29T08:37:53.362Z,12.00
2022-10-29T08:40:48.241Z,12.85
2022-10-29T08:43:44.599Z,13.00
2022-10-29T08:46:50.611Z,13.53
2022-10-29T08:49:19.213Z,11.40
2022-10-29T08:52:02.994Z,13.25
2022-10-29T08:54:36.845Z,11.80
2022-10-29T08:57:16.086Z,12.48
2022-10-29T09:00:01.391Z,12.57
2022-10-29T09:02:28.163Z,11.55
2022-10-29T09:04:54.930Z,12.30
2022-10-29T09:10:40.379Z,13.30
2022-10-29T09:13:59.505Z,12.07
2022-10-29T09:17:14.561Z,12.60
2022-10-29T09:20:05.659Z,13.07
2022-10-29T09:22:57.037Z,14.23
2022-10-29T09:25:26.423Z,16.02
2022-10-29T09:28:04.626Z,12.50
2022-10-29T09:30:34.198Z,13.48
2022-10-29T09:33:11.478Z,12.80
2022-10-29T09:35:40.538Z,11.98
2022-10-29T09:38:20.470Z,13.68
2022-10-29T09:40:47.014Z,14.10
2022-10-29T09:43:49.941Z,17.55
2022-10-29T09:46:26.179Z,14.43
2022-10-29T09:49:00.618Z,15.10
2022-10-29T09:51:57.522Z,20.15
2022-10-29T09:54:26.992Z,13.93
2022-10-29T09:56:56.130Z,16.92
2022-10-29T09:59:50.145Z,13.45
2022-10-29T10:05:12.884Z,12.23
2022-10-29T10:07:43.146Z,15.40
2022-10-29T10:10:23.888Z,14.52
2022-10-29T10:12:51.080Z,15.30
2022-10-29T10:15:38.190Z,18.92
2022-10-29T10:18:05.143Z,12.95
2022-10-29T10:20:45.093Z,10.57
2022-10-29T10:23:46.649Z,12.88
2022-10-29T10:33:41.956Z,15.20
2022-10-29T10:38:56.752Z,17.17
2022-10-29T10:41:29.277Z,12.13
2022-10-29T10:44:12.313Z,13.40
2022-10-29T10:46:41.508Z,14.60
2022-10-29T10:49:23.045Z,10.20
2022-10-29T10:51:52.735Z,11.45
2022-10-29T10:54:33.414Z,9.82
2022-10-29T10:57:25.338Z,11.20
2022-10-29T10:59:51.865Z,11.23
2022-10-29T11:02:34.434Z,13.97
2022-10-29T11:05:16.060Z,10.50
2022-10-29T11:07:52.335Z,10.35
2022-10-29T11:10:23.619Z,12.15
2022-10-29T11:12:55.446Z,9.43
2022-10-29T11:15:38.997Z,12.40
2022-10-29T11:18:39.788Z,15.88
2022-10-29T11:21:18.574Z,9.80
2022-10-29T11:24:05.759Z,8.82
2022-10-29T11:26:39.245Z,10.32
2022-10-29T11:29:29.801Z,9.67
2022-10-29T11:32:22.491Z,12.70
2022-10-29T11:35:11.214Z,9.10
2022-10-29T11:37:52.697Z,11.30
2022-10-29T11:40:42.525Z,9.43
2022-10-29T11:43:12.334Z,7.97
2022-10-29T11:46:12.659Z,8.80
2022-10-29T11:49:06.399Z,9.50
2022-10-29T11:51:44.431Z,8.20
2022-10-29T11:54:28.980Z,16.52
2022-10-29T11:57:04.279Z,15.47
2022-10-29T12:02:54.307Z,8.43
2022-10-29T12:05:46.132Z,7.50
2022-10-29T12:08:21.194Z,8.35
2022-10-29T12:11:10.193Z,10.77
2022-10-29T12:13:46.238Z,7.15
2022-10-29T12:16:40.519Z,14.65
2022-10-29T12:19:29.540Z,8.35
2022-10-29T12:22:23.428Z,7.68
2022-10-29T12:25:38.361Z,7.37
2022-10-29T12:28:36.553Z,10.57
2022-10-29T12:31:21.552Z,7.57
2022-10-29T12:34:10.563Z,8.30
2022-10-29T12:37:10.543Z,10.23
2022-10-29T12:40:04.419Z,5.57
2022-10-29T12:46:06.401Z,7.82
2022-10-29T12:48:40.617Z,6.03
2022-10-29T12:51:33.165Z,10.60
2022-10-29T12:54:30.728Z,8.30
2022-10-29T12:57:04.725Z,6.70
2022-10-29T12:59:34.824Z,7.65
2022-10-29T13:02:41.836Z,5.85
2022-10-29T13:32:36.743Z,7.40
2022-10-29T13:35:18.599Z,7.80
2022-10-29T13:37:53.681Z,10.07
2022-10-29T13:40:31.184Z,7.07
2022-10-29T13:43:09.803Z,8.10
2022-10-29T13:46:04.000Z,8.40
2022-10-29T13:48:44.984Z,6.13
2022-10-29T13:51:16.237Z,7.10
2022-10-29T13:54:10.904Z,9.27
2022-10-29T13:57:23.671Z,6.43
2022-10-29T14:03:28.947Z,7.43
2022-10-29T14:06:23.477Z,7.53
2022-10-29T14:09:15.019Z,7.95
2022-10-29T14:12:07.163Z,7.68
2022-10-29T14:14:37.861Z,7.30
2022-10-29T14:17:21.093Z,12.33
2022-10-29T14:19:53.255Z,7.72
2022-10-29T14:22:35.979Z,6.07
2022-10-29T14:25:32.006Z,9.48
2022-10-29T14:28:19.960Z,6.72
2022-10-29T14:30:48.177Z,5.33
2022-10-29T14:33:29.095Z,8.20
2022-10-29T14:36:24.582Z,8.77
2022-10-29T14:39:23.758Z,7.53
2022-10-29T14:41:54.686Z,7.47
2022-10-29T14:44:27.548Z,10.73
2022-10-29T14:47:13.403Z,8.70
2022-10-29T14:49:45.256Z,7.72
2022-10-29T14:52:28.519Z,6.88
2022-10-29T14:54:57.783Z,6.03
2022-10-29T14:57:27.547Z,7.20
2022-10-29T15:00:01.233Z,6.20
2022-10-29T15:02:38.466Z,6.35
2022-10-29T15:05:29.145Z,6.72
2022-10-29T15:13:38.395Z,6.60
2022-10-29T15:16:31.920Z,10.48
2022-10-29T15:21:53.254Z,5.70
2022-10-29T15:24:38.626Z,11.10
2022-10-29T15:30:08.236Z,5.90
2022-10-29T15:35:24.595Z,9.20
2022-10-29T15:38:28.686Z,6.00
2022-10-29T15:41:20.041Z,5.90
2022-10-29T15:47:30.909Z,6.93
2022-10-29T15:49:57.798Z,6.57
2022-10-29T15:52:30.732Z,6.47
2022-10-29T15:58:17.476Z,9.88
2022-10-29T16:03:27.173Z,10.68
2022-10-29T16:06:01.828Z,7.77
2022-10-29T16:08:34.502Z,10.35
2022-10-29T16:11:02.799Z,9.13
2022-10-29T16:13:30.762Z,11.25
2022-10-29T16:15:57.334Z,6.70
2022-10-29T16:18:24.130Z,8.70
2022-10-29T16:20:55.918Z,10.60
2022-10-29T16:23:22.654Z,9.13
2022-10-29T16:25:49.451Z,13.35
2022-10-29T16:28:16.081Z,7.72
2022-10-29T16:30:42.770Z,7.40
2022-10-29T16:33:11.113Z,7.88
2022-10-29T16:35:37.870Z,8.20
2022-10-29T16:38:04.503Z,8.70
2022-10-29T16:40:31.068Z,7.10
2022-10-29T16:42:58.102Z,7.63
2022-10-29T16:45:29.711Z,7.32
2022-10-29T16:47:57.058Z,8.55
2022-10-29T16:50:26.718Z,7.65
2022-10-29T16:53:00.854Z,7.15
2022-10-29T16:55:28.776Z,7.87
2022-10-29T16:57:56.500Z,6.57
2022-10-29T17:00:23.623Z,7.72
2022-10-29T17:02:50.240Z,8.38
2022-10-29T17:05:17.280Z,6.95
2022-10-29T17:07:45.118Z,7.17
2022-10-29T17:10:11.812Z,7.20
2022-10-29T17:12:38.494Z,6.88
2022-10-29T17:15:07.527Z,6.55
2022-10-29T17:17:46.465Z,11.23
2022-10-29T17:20:21.584Z,6.13
2022-10-29T17:22:48.215Z,7.95
2022-10-29T17:25:14.827Z,6.78
2022-10-29T17:27:41.955Z,8.32
2022-10-29T17:30:10.573Z,7.22
2022-10-29T17:32:37.383Z,11.33
2022-10-29T17:35:07.358Z,7.10
2022-10-29T17:37:34.173Z,11.10
2022-10-29T17:40:06.868Z,7.50
2022-10-29T17:42:35.028Z,6.50
2022-10-29T17:45:01.671Z,7.30
2022-10-29T17:47:29.479Z,6.70
2022-10-29T17:49:56.273Z,9.73
2022-10-29T17:52:22.984Z,8.40
2022-10-29T17:54:49.643Z,7.03
2022-10-29T17:59:57.971Z,7.85
2022-10-29T18:02:38.763Z,7.43
2022-10-29T18:05:17.630Z,7.60
2022-10-29T18:07:44.258Z,8.50
2022-10-29T18:10:19.949Z,7.50
2022-10-29T18:12:46.787Z,10.25
2022-10-29T18:15:29.766Z,8.00
2022-10-29T18:17:58.947Z,10.75
2022-10-29T18:20:25.611Z,10.18
2022-10-29T18:23:04.580Z,10.13
2022-10-29T18:25:31.273Z,9.10
2022-10-29T18:27:57.862Z,10.48
2022-10-29T18:30:24.489Z,8.48
2022-10-29T18:33:05.491Z,8.63
2022-10-29T18:35:32.146Z,8.83
2022-10-29T18:37:59.216Z,8.02
2022-10-29T18:40:26.278Z,8.10
2022-10-29T18:42:53.023Z,8.93
2022-10-29T18:45:19.577Z,8.02
2022-10-29T18:47:46.364Z,7.37
2022-10-29T18:50:12.985Z,7.18
2022-10-29T18:52:39.563Z,7.57
2022-10-29T18:55:06.765Z,7.85
2022-10-29T18:57:33.678Z,10.38
2022-10-29T19:00:00.239Z,8.23
2022-10-29T19:02:27.185Z,7.00
2022-10-29T19:04:53.882Z,7.28
2022-10-29T19:07:20.479Z,6.90
2022-10-29T19:09:47.999Z,8.45
2022-10-29T19:12:14.982Z,6.57
2022-10-29T19:14:41.544Z,10.20
2022-10-29T19:17:08.093Z,8.20
2022-10-29T19:19:35.686Z,7.25
2022-10-29T19:22:02.227Z,6.50
2022-10-29T19:27:09.648Z,7.30
2022-10-29T19:29:36.672Z,9.10
2022-10-29T19:51:54.735Z,6.67
2022-10-29T19:54:21.497Z,6.88
2022-10-29T19:56:48.233Z,6.10
2022-10-29T19:59:17.222Z,6.80
2022-10-29T20:02:04.335Z,6.75
2022-10-29T20:04:32.454Z,6.73
2022-10-29T20:07:15.239Z,6.45
2022-10-29T20:09:42.767Z,6.53
2022-10-29T20:12:13.656Z,5.93
2022-10-29T20:14:40.783Z,5.97
2022-10-29T20:17:11.334Z,5.67
2022-10-29T20:33:11.593Z,5.72
2022-10-29T20:35:39.929Z,7.18
2022-10-29T20:38:06.748Z,6.90
2022-10-29T20:48:32.838Z,5.65
2022-10-29T20:50:59.973Z,7.53
2022-10-29T20:53:26.585Z,7.43
2022-10-29T20:55:54.281Z,10.00
2022-10-29T20:58:22.527Z,9.55
2022-10-29T21:00:50.241Z,6.68
2022-10-29T21:03:17.799Z,8.38
2022-10-29T21:06:00.954Z,6.90
2022-10-29T21:11:18.056Z,8.32
2022-10-29T21:19:09.095Z,8.57
2022-10-29T21:24:18.109Z,7.10
2022-10-29T21:26:45.310Z,7.00
2022-10-29T21:29:14.907Z,7.72
2022-10-29T21:31:55.815Z,9.98
2022-10-29T21:34:22.833Z,6.23
2022-10-29T21:36:51.507Z,7.25
2022-10-29T21:39:34.781Z,7.80
2022-10-29T21:42:13.874Z,6.45
2022-10-29T21:44:40.754Z,6.97
2022-10-29T21:47:14.250Z,8.63
2022-10-29T21:49:45.833Z,6.68
2022-10-29T21:54:56.104Z,6.97
2022-10-29T21:57:30.510Z,8.85
2022-10-29T21:59:57.692Z,7.03
2022-10-29T22:02:25.764Z,6.50
2022-10-29T22:11:15.257Z,15.43
2022-10-29T22:13:41.982Z,10.93
2022-10-29T22:16:11.671Z,7.55
2022-10-29T22:18:39.478Z,9.80
2022-10-29T22:21:15.285Z,10.52
2022-10-29T22:23:53.545Z,12.68
2022-10-29T22:26:23.047Z,10.53
2022-10-29T22:28:49.789Z,10.68
2022-10-29T22:31:18.873Z,6.95
2022-10-29T22:33:46.161Z,7.10
2022-10-29T22:36:15.183Z,7.20
2022-10-29T22:43:57.052Z,12.98
2022-10-29T22:46:24.045Z,6.75
2022-10-29T22:49:03.345Z,8.15
2022-10-29T22:51:32.391Z,16.50
2022-10-29T22:53:59.592Z,16.73
2022-10-29T22:56:41.426Z,11.50
2022-10-29T22:59:08.244Z,11.02
2022-10-29T23:01:47.949Z,10.88
2022-10-29T23:04:14.874Z,9.63
2022-10-29T23:06:41.617Z,8.07
2022-10-29T23:09:08.305Z,11.18
2022-10-29T23:11:50.214Z,8.25
2022-10-29T23:14:16.798Z,9.13
2022-10-29T23:16:43.391Z,7.67
2022-10-29T23:27:17.333Z,7.65
2022-10-29T23:29:46.296Z,7.77
2022-10-29T23:32:24.427Z,8.18
2022-10-29T23:34:51.314Z,8.65
2022-10-29T23:37:18.335Z,9.98
2022-10-29T23:39:58.226Z,11.40
2022-10-29T23:42:25.538Z,9.10
2022-10-29T23:45:09.100Z,9.15
2022-10-29T23:47:35.834Z,8.75
2022-10-29T23:50:03.080Z,8.73
2022-10-29T23:52:42.340Z,8.05
2022-10-29T23:55:09.981Z,10.00
2022-10-29T23:57:37.186Z,11.57
